Time;durP1;ratioP1;P1;durP2;ratioP2;P2;SDS_P1;SDS_P2;PMS_P1;PMS_P2;Temp;Humidity;BMP_temperature;BMP_pressure;BME280_temperature;BME280_humidity;BME280_pressure;Samples;Min_cycle;Max_cycle;Signal;HPM_P1;HPM_P2
2021/10/05 00:01:05;;;;;;;0.50;0.50;;;12.00;94.30;;;;;;5113981;28;20024;-71
2021/10/05 00:03:31;;;;;;;0.60;0.43;;;12.00;94.30;;;;;;5113896;28;20016;-71
2021/10/05 00:06:00;;;;;;;0.17;0.17;;;12.00;94.30;;;;;;5113897;28;20023;-71
2021/10/05 00:08:25;;;;;;;0.43;0.43;;;11.90;94.30;;;;;;5095629;28;20031;-71
2021/10/05 00:10:51;;;;;;;0.60;0.60;;;11.90;94.30;;;;;;5113768;28;20468;-71
2021/10/05 00:13:17;;;;;;;0.70;0.70;;;11.90;94.30;;;;;;5113384;28;20031;-71
2021/10/05 00:15:42;;;;;;;0.52;0.43;;;11.90;94.30;;;;;;5113859;28;20388;-72
2021/10/05 00:18:08;;;;;;;0.30;0.30;;;11.80;94.20;;;;;;5095537;28;20076;-71
2021/10/05 00:20:34;;;;;;;0.60;0.60;;;11.80;94.30;;;;;;5113816;28;20032;-71
2021/10/05 00:22:59;;;;;;;0.63;0.50;;;11.80;94.30;;;;;;5095339;28;20016;-73
2021/10/05 00:25:25;;;;;;;0.60;0.60;;;11.80;94.50;;;;;;5113718;28;20023;-71
2021/10/05 00:27:51;;;;;;;0.40;0.40;;;11.80;94.40;;;;;;5113059;28;20055;-71
2021/10/05 00:30:17;;;;;;;0.75;0.60;;;11.80;94.40;;;;;;5113701;28;20016;-70
2021/10/05 00:32:42;;;;;;;0.47;0.47;;;11.80;94.40;;;;;;5113599;28;20120;-72
2021/10/05 00:35:08;;;;;;;0.45;0.40;;;11.80;94.40;;;;;;5113496;28;20023;-71
2021/10/05 00:37:34;;;;;;;0.40;0.40;;;11.80;94.50;;;;;;5113691;28;20072;-71
2021/10/05 00:40:00;;;;;;;0.40;0.40;;;11.80;94.50;;;;;;5113644;28;20027;-70
2021/10/05 00:42:25;;;;;;;0.45;0.45;;;11.80;94.50;;;;;;5113012;28;20063;-72
2021/10/05 00:44:51;;;;;;;0.60;0.60;;;11.90;94.50;;;;;;5113446;28;20102;-71
2021/10/05 00:47:17;;;;;;;0.55;0.40;;;11.90;94.50;;;;;;5113267;28;20036;-71
2021/10/05 00:49:46;;;;;;;0.68;0.55;;;11.90;94.50;;;;;;5113475;28;20468;-70
2021/10/05 00:52:14;;;;;;;0.45;0.45;;;11.90;94.40;;;;;;5113353;28;20102;-73
2021/10/05 00:54:41;;;;;;;0.43;0.35;;;11.90;94.40;;;;;;5113464;28;20020;-71
2021/10/05 00:57:08;;;;;;;0.40;0.40;;;11.90;94.40;;;;;;5112922;28;20444;-71
2021/10/05 00:59:35;;;;;;;0.77;0.40;;;11.90;94.40;;;;;;5113300;28;20053;-71
2021/10/05 01:02:01;;;;;;;0.40;0.40;;;11.80;94.30;;;;;;5113998;28;20456;-71
2021/10/05 01:04:27;;;;;;;0.50;0.50;;;11.80;94.30;;;;;;5117425;28;20027;-71
2021/10/05 01:07:00;;;;;;;4.47;0.85;;;11.80;94.30;;;;;;5117156;28;20039;-71
2021/10/05 01:09:27;;;;;;;0.43;0.43;;;11.80;94.30;;;;;;5117241;28;20102;-70
2021/10/05 01:11:53;;;;;;;0.52;0.50;;;11.80;94.30;;;;;;5098332;28;20040;-71
2021/10/05 01:14:19;;;;;;;0.30;0.30;;;11.80;94.30;;;;;;5117015;28;20020;-70
2021/10/05 01:16:44;;;;;;;0.63;0.40;;;11.70;94.30;;;;;;5117112;28;20407;-71
2021/10/05 01:19:10;;;;;;;0.40;0.40;;;11.70;94.30;;;;;;5117220;28;20361;-71
2021/10/05 01:21:36;;;;;;;0.50;0.50;;;11.70;94.30;;;;;;5117128;28;20467;-70
2021/10/05 01:24:09;;;;;;;0.50;0.50;;;11.70;94.30;;;;;;5116981;28;20441;-70
2021/10/05 01:26:35;;;;;;;0.55;0.55;;;11.70;94.20;;;;;;5098182;28;20023;-71
2021/10/05 01:29:02;;;;;;;0.88;0.63;;;11.70;94.30;;;;;;5116920;28;20031;-71
2021/10/05 01:31:30;;;;;;;0.40;0.40;;;11.60;94.30;;;;;;5116762;28;20019;-72
2021/10/05 01:33:56;;;;;;;0.57;0.57;;;11.60;94.40;;;;;;5116889;28;20500;-71
2021/10/05 01:36:22;;;;;;;0.30;0.30;;;11.60;94.30;;;;;;5116819;28;20026;-70
2021/10/05 01:38:47;;;;;;;0.50;0.43;;;11.60;94.30;;;;;;5116388;28;20020;-72
2021/10/05 01:41:13;;;;;;;0.50;0.45;;;11.60;94.30;;;;;;5116663;28;20023;-71
2021/10/05 01:43:39;;;;;;;0.55;0.30;;;11.60;94.30;;;;;;5116476;28;20479;-70
2021/10/05 01:46:11;;;;;;;0.40;0.40;;;11.60;94.30;;;;;;5116621;28;20019;-70
2021/10/05 01:48:37;;;;;;;0.30;0.30;;;11.60;94.30;;;;;;5098217;28;20040;-71
2021/10/05 01:51:02;;;;;;;0.40;0.40;;;11.50;94.30;;;;;;5116567;28;20038;-72
2021/10/05 01:53:28;;;;;;;0.50;0.50;;;11.50;94.30;;;;;;5115717;28;20111;-72
2021/10/05 01:55:53;;;;;;;0.30;0.30;;;11.50;94.40;;;;;;5116417;28;20019;-70
2021/10/05 01:58:19;;;;;;;0.70;0.70;;;11.50;94.40;;;;;;5116507;28;20477;-70
2021/10/05 02:00:44;;;;;;;0.50;0.50;;;11.50;94.70;;;;;;5116249;28;20024;-72
2021/10/05 02:03:12;;;;;;;0.40;0.40;;;11.50;94.40;;;;;;5116295;28;20030;-72
2021/10/05 02:05:40;;;;;;;0.70;0.70;;;11.50;94.40;;;;;;5116196;28;20046;-71
2021/10/05 02:08:06;;;;;;;0.40;0.40;;;11.50;94.70;;;;;;5097262;28;20106;-71
2021/10/05 02:10:32;;;;;;;0.88;0.35;;;11.50;94.40;;;;;;5115847;28;20506;-71
2021/10/05 02:13:00;;;;;;;0.45;0.40;;;11.50;94.30;;;;;;5116087;28;20110;-71
2021/10/05 02:15:25;;;;;;;0.52;0.50;;;11.50;94.30;;;;;;5115060;28;20024;-72
2021/10/05 02:17:51;;;;;;;0.30;0.30;;;11.50;94.30;;;;;;5116032;28;20494;-71
2021/10/05 02:20:16;;;;;;;0.40;0.40;;;11.50;94.30;;;;;;5097491;28;20020;-71
2021/10/05 02:22:42;;;;;;;0.65;0.60;;;11.50;94.30;;;;;;5115408;28;20020;-72
2021/10/05 02:25:08;;;;;;;0.40;0.40;;;11.40;94.40;;;;;;5097636;28;20103;-72
2021/10/05 02:27:34;;;;;;;0.70;0.70;;;11.50;94.40;;;;;;5115774;28;20042;-72
2021/10/05 02:29:59;;;;;;;0.38;0.30;;;11.40;94.40;;;;;;5097357;28;20409;-71
2021/10/05 02:32:25;;;;;;;0.40;0.40;;;11.50;94.50;;;;;;5115767;28;20027;-72
2021/10/05 02:34:51;;;;;;;0.55;0.55;;;11.50;94.50;;;;;;5115521;28;20141;-70
2021/10/05 02:37:17;;;;;;;0.70;0.70;;;11.50;94.60;;;;;;5115159;28;20028;-70
2021/10/05 02:39:42;;;;;;;0.63;0.63;;;11.50;94.60;;;;;;5115508;28;20028;-72
2021/10/05 02:42:09;;;;;;;0.57;0.57;;;11.50;94.50;;;;;;5115457;28;20020;-71
2021/10/05 02:44:34;;;;;;;0.68;0.65;;;11.60;94.50;;;;;;5115395;28;20093;-71
2021/10/05 02:47:00;;;;;;;0.50;0.50;;;11.60;94.50;;;;;;5115440;28;20124;-72
2021/10/05 02:49:26;;;;;;;0.55;0.52;;;11.60;94.50;;;;;;5115250;28;20020;-71
2021/10/05 02:51:51;;;;;;;1.17;0.55;;;11.60;94.50;;;;;;5114841;28;20031;-70
2021/10/05 02:54:17;;;;;;;0.38;0.35;;;11.60;94.50;;;;;;5115167;28;20016;-72
2021/10/05 02:56:42;;;;;;;0.73;0.70;;;11.60;94.50;;;;;;5115100;28;20088;-70
2021/10/05 02:59:08;;;;;;;0.73;0.50;;;11.60;94.50;;;;;;5115135;28;20046;-72
2021/10/05 03:01:34;;;;;;;0.85;0.85;;;11.60;94.50;;;;;;5115130;28;20096;-72
2021/10/05 03:03:59;;;;;;;0.85;0.70;;;11.60;94.50;;;;;;5114976;28;20427;-72
2021/10/05 03:06:25;;;;;;;0.65;0.60;;;11.60;94.40;;;;;;5114529;28;20030;-71
2021/10/05 03:08:54;;;;;;;0.80;0.73;;;11.60;94.50;;;;;;5114958;28;20069;-70
2021/10/05 03:11:19;;;;;;;1.35;1.10;;;11.60;94.40;;;;;;5096447;28;20051;-71
2021/10/05 03:13:45;;;;;;;0.52;0.50;;;11.60;94.40;;;;;;5114868;28;20433;-71
2021/10/05 03:16:10;;;;;;;0.70;0.70;;;11.60;94.40;;;;;;5114812;28;20027;-72
2021/10/05 03:18:38;;;;;;;0.90;0.70;;;11.70;94.50;;;;;;5114687;28;20027;-72
2021/10/05 03:21:04;;;;;;;0.73;0.73;;;11.60;94.40;;;;;;5095839;28;20038;-72
2021/10/05 03:23:29;;;;;;;0.70;0.70;;;11.60;94.50;;;;;;5114678;28;20023;-72
2021/10/05 03:25:55;;;;;;;0.80;0.70;;;11.60;94.50;;;;;;5114646;28;20024;-72
2021/10/05 03:28:20;;;;;;;1.20;0.90;;;11.60;94.50;;;;;;5114484;28;20080;-70
2021/10/05 03:30:46;;;;;;;0.85;0.70;;;11.60;94.50;;;;;;5114555;28;20118;-70
2021/10/05 03:33:11;;;;;;;2.97;0.75;;;11.60;94.50;;;;;;5114196;28;20030;-70
2021/10/05 03:35:37;;;;;;;0.80;0.70;;;11.60;94.50;;;;;;5113942;28;20030;-71
2021/10/05 03:38:03;;;;;;;0.90;0.90;;;11.60;94.50;;;;;;5114588;28;20094;-72
2021/10/05 03:40:29;;;;;;;1.00;0.90;;;11.60;94.50;;;;;;5114469;28;20016;-73
2021/10/05 03:42:54;;;;;;;0.90;0.90;;;11.60;94.50;;;;;;5096083;28;20031;-72
2021/10/05 03:45:20;;;;;;;0.68;0.60;;;11.70;94.60;;;;;;5114112;28;20016;-72
2021/10/05 03:47:46;;;;;;;1.45;0.98;;;11.70;94.50;;;;;;5114095;28;20067;-71
2021/10/05 03:50:12;;;;;;;0.90;0.85;;;11.70;94.50;;;;;;5113693;28;20024;-70
2021/10/05 03:52:38;;;;;;;1.65;1.05;;;11.70;94.60;;;;;;5114167;28;20045;-71
2021/10/05 03:55:05;;;;;;;0.60;0.60;;;11.70;94.60;;;;;;5114266;28;20058;-72
2021/10/05 03:57:31;;;;;;;1.52;0.80;;;11.70;94.50;;;;;;5114066;28;20039;-72
2021/10/05 03:59:56;;;;;;;0.70;0.70;;;11.70;94.50;;;;;;5095715;28;20049;-71
2021/10/05 04:02:22;;;;;;;0.65;0.65;;;11.70;94.50;;;;;;5114379;28;20024;-71
2021/10/05 04:04:47;;;;;;;0.80;0.70;;;11.70;94.50;;;;;;5114590;28;20470;-71
2021/10/05 04:07:13;;;;;;;1.05;0.88;;;11.60;94.50;;;;;;5113830;28;20042;-71
2021/10/05 04:09:38;;;;;;;1.05;0.73;;;11.60;94.50;;;;;;5113888;28;20015;-71
2021/10/05 04:12:04;;;;;;;0.68;0.68;;;11.60;94.50;;;;;;5113663;28;20047;-72
2021/10/05 04:14:29;;;;;;;0.77;0.77;;;11.60;94.50;;;;;;5113850;28;20027;-71
2021/10/05 04:16:55;;;;;;;1.55;1.10;;;11.60;94.50;;;;;;5113812;28;20372;-71
2021/10/05 04:19:20;;;;;;;0.93;0.93;;;11.60;94.50;;;;;;5113342;28;20047;-71
2021/10/05 04:21:46;;;;;;;0.82;0.80;;;11.60;94.50;;;;;;5113790;28;20467;-71
2021/10/05 04:24:12;;;;;;;0.65;0.65;;;11.50;94.50;;;;;;5113757;28;20038;-71
2021/10/05 04:26:37;;;;;;;0.60;0.60;;;11.50;94.50;;;;;;5095397;28;20016;-71
2021/10/05 04:29:03;;;;;;;0.68;0.65;;;11.50;94.50;;;;;;5113681;28;20539;-70
2021/10/05 04:31:28;;;;;;;0.82;0.68;;;11.50;94.50;;;;;;5113591;28;20082;-72
2021/10/05 04:33:54;;;;;;;0.88;0.70;;;11.50;94.50;;;;;;5113171;28;20058;-71
2021/10/05 04:36:19;;;;;;;0.90;0.80;;;11.50;94.60;;;;;;5113678;28;20027;-70
2021/10/05 04:38:45;;;;;;;0.77;0.77;;;11.50;94.60;;;;;;5117349;28;20032;-71
2021/10/05 04:41:10;;;;;;;0.65;0.65;;;11.50;94.60;;;;;;5117742;28;20035;-71
2021/10/05 04:43:36;;;;;;;0.60;0.60;;;11.50;94.60;;;;;;5099505;28;20035;-71
2021/10/05 04:46:01;;;;;;;1.02;0.93;;;11.50;94.60;;;;;;5117791;28;20024;-73
2021/10/05 04:48:27;;;;;;;0.60;0.60;;;11.50;94.50;;;;;;5117053;28;20028;-71
2021/10/05 04:50:53;;;;;;;1.15;0.90;;;11.60;94.60;;;;;;5117482;28;20503;-71
2021/10/05 04:53:19;;;;;;;0.50;0.50;;;11.50;94.50;;;;;;5117631;28;20027;-71
2021/10/05 04:55:44;;;;;;;1.65;0.90;;;11.50;94.50;;;;;;5117619;28;20417;-72
2021/10/05 04:58:11;;;;;;;0.85;0.85;;;11.50;94.50;;;;;;5117351;28;20057;-71
2021/10/05 05:00:36;;;;;;;0.80;0.80;;;11.50;94.50;;;;;;5117447;28;20103;-70
2021/10/05 05:03:02;;;;;;;0.82;0.80;;;11.50;94.50;;;;;;5116809;28;20110;-71
2021/10/05 05:05:28;;;;;;;0.80;0.70;;;11.50;94.50;;;;;;5099139;28;20054;-72
2021/10/05 05:08:01;;;;;;;0.73;0.68;;;11.50;94.50;;;;;;5117515;28;20544;-72
2021/10/05 05:10:27;;;;;;;0.85;0.80;;;11.50;94.40;;;;;;5098828;28;20052;-71
2021/10/05 05:12:53;;;;;;;1.10;0.90;;;11.50;94.50;;;;;;5117144;28;20030;-70
2021/10/05 05:15:19;;;;;;;1.00;0.80;;;11.40;94.50;;;;;;5117015;28;20023;-70
2021/10/05 05:17:45;;;;;;;1.20;1.10;;;11.40;94.60;;;;;;5116710;28;20093;-71
2021/10/05 05:20:11;;;;;;;1.42;1.20;;;11.40;94.60;;;;;;5117109;28;20464;-71
2021/10/05 05:22:36;;;;;;;1.80;1.70;;;11.40;94.60;;;;;;5117082;28;20451;-70
2021/10/05 05:25:03;;;;;;;1.25;0.98;;;11.40;94.60;;;;;;5116858;28;20020;-72
2021/10/05 05:27:29;;;;;;;1.33;0.80;;;11.40;94.60;;;;;;5098449;28;20036;-72
2021/10/05 05:29:54;;;;;;;1.80;1.23;;;11.40;94.60;;;;;;5116862;28;20353;-72
2021/10/05 05:32:20;;;;;;;1.23;0.90;;;11.50;94.60;;;;;;5098023;28;20031;-73
2021/10/05 05:34:45;;;;;;;0.90;0.80;;;11.40;94.50;;;;;;5116761;28;20051;-72
2021/10/05 05:37:12;;;;;;;1.27;1.08;;;11.40;94.50;;;;;;5116899;28;20047;-71
2021/10/05 05:39:40;;;;;;;1.27;1.17;;;11.40;94.50;;;;;;5116740;28;20038;-71
2021/10/05 05:42:07;;;;;;;1.20;1.10;;;11.40;94.60;;;;;;5116824;28;20020;-71
2021/10/05 05:44:33;;;;;;;0.93;0.85;;;11.40;94.50;;;;;;5116422;28;20460;-73
2021/10/05 05:46:59;;;;;;;1.80;1.40;;;11.40;94.60;;;;;;5115925;28;20032;-71
2021/10/05 05:49:24;;;;;;;1.83;1.55;;;11.30;94.50;;;;;;5115138;28;20099;-71
2021/10/05 05:51:50;;;;;;;1.83;1.20;;;11.30;94.50;;;;;;5098213;28;20491;-71
2021/10/05 05:54:16;;;;;;;1.90;1.15;;;11.30;94.50;;;;;;5116268;28;20094;-72
2021/10/05 05:56:41;;;;;;;1.70;1.50;;;11.40;94.50;;;;;;5116409;28;20034;-71
2021/10/05 05:59:07;;;;;;;1.30;0.93;;;11.30;94.50;;;;;;5116286;28;20491;-72
2021/10/05 06:01:33;;;;;;;1.77;1.63;;;11.30;94.50;;;;;;5115662;28;20024;-71
2021/10/05 06:04:00;;;;;;;3.28;1.10;;;11.30;94.50;;;;;;5116244;28;20429;-72
2021/10/05 06:06:25;;;;;;;1.73;1.35;;;11.30;94.50;;;;;;5116196;28;20103;-71
2021/10/05 06:08:51;;;;;;;2.03;1.25;;;11.30;94.50;;;;;;5116099;28;20119;-72
2021/10/05 06:11:19;;;;;;;1.17;1.02;;;11.30;94.40;;;;;;5116025;28;20054;-72
2021/10/05 06:13:47;;;;;;;1.80;1.17;;;11.30;94.40;;;;;;5116044;28;20072;-71
2021/10/05 06:16:14;;;;;;;2.38;2.00;;;11.30;94.40;;;;;;5115527;28;20552;-71
2021/10/05 06:18:39;;;;;;;1.98;1.30;;;11.30;94.40;;;;;;5115857;28;20027;-71
2021/10/05 06:21:05;;;;;;;1.90;1.33;;;11.30;94.40;;;;;;5115919;28;20388;-71
2021/10/05 06:23:30;;;;;;;1.25;1.00;;;11.30;94.50;;;;;;5115849;28;20028;-71
2021/10/05 06:25:56;;;;;;;2.78;1.92;;;11.30;94.50;;;;;;5115859;28;20032;-70
2021/10/05 06:28:22;;;;;;;3.28;1.63;;;11.30;94.50;;;;;;5115685;28;20128;-72
2021/10/05 06:30:48;;;;;;;1.98;1.58;;;11.30;94.40;;;;;;5115293;28;20111;-72
2021/10/05 06:33:13;;;;;;;1.83;1.30;;;11.30;94.40;;;;;;5115586;28;20514;-71
2021/10/05 06:35:39;;;;;;;3.38;1.70;;;11.30;94.40;;;;;;5115501;28;20024;-71
2021/10/05 06:38:04;;;;;;;3.25;1.83;;;11.30;94.50;;;;;;5115533;28;20049;-71
2021/10/05 06:40:33;;;;;;;2.83;1.75;;;11.30;94.50;;;;;;5115194;28;20460;-70
2021/10/05 06:42:59;;;;;;;1.63;1.20;;;11.40;94.50;;;;;;5115337;28;20031;-71
2021/10/05 06:45:25;;;;;;;1.70;1.10;;;11.40;94.50;;;;;;5114891;28;20019;-72
2021/10/05 06:47:51;;;;;;;2.55;1.40;;;11.40;94.50;;;;;;5115271;28;20036;-71
2021/10/05 06:50:17;;;;;;;1.38;1.17;;;11.40;94.50;;;;;;5115008;28;20051;-71
2021/10/05 06:52:43;;;;;;;1.70;1.17;;;11.50;94.40;;;;;;5115130;28;20031;-72
2021/10/05 06:55:09;;;;;;;3.00;1.60;;;11.50;94.40;;;;;;5115218;28;20020;-72
2021/10/05 06:57:35;;;;;;;3.63;2.35;;;11.50;94.50;;;;;;5115127;28;20032;-72
2021/10/05 07:00:00;;;;;;;1.90;1.30;;;11.50;94.50;;;;;;5095728;28;20064;-71
2021/10/05 07:02:26;;;;;;;3.03;2.00;;;11.50;94.50;;;;;;5115071;28;20036;-71
2021/10/05 07:04:51;;;;;;;3.50;2.35;;;11.60;94.50;;;;;;5114850;28;20035;-71
2021/10/05 07:07:17;;;;;;;3.92;1.80;;;11.60;94.50;;;;;;5096557;28;20024;-71
2021/10/05 07:09:43;;;;;;;3.72;2.03;;;11.60;94.50;;;;;;5115121;28;20034;-71
2021/10/05 07:12:08;;;;;;;2.58;1.70;;;11.70;94.60;;;;;;5114666;28;20058;-72
2021/10/05 07:14:34;;;;;;;3.63;2.35;;;11.80;94.60;;;;;;5096069;28;20030;-72
2021/10/05 07:17:01;;;;;;;3.58;1.90;;;11.80;94.60;;;;;;5114771;28;20023;-72
2021/10/05 07:19:27;;;;;;;3.35;1.70;;;11.90;94.60;;;;;;5114759;28;20027;-71
2021/10/05 07:21:52;;;;;;;2.08;1.80;;;11.90;94.60;;;;;;5114678;28;20430;-71
2021/10/05 07:24:18;;;;;;;2.70;1.55;;;12.00;94.60;;;;;;5114697;28;20026;-72
2021/10/05 07:26:43;;;;;;;3.92;2.03;;;12.00;94.60;;;;;;5114426;28;20035;-71
2021/10/05 07:29:10;;;;;;;3.05;1.92;;;12.10;94.70;;;;;;5114122;28;20028;-71
2021/10/05 07:31:35;;;;;;;2.25;1.70;;;12.10;94.70;;;;;;5114838;28;20064;-71
2021/10/05 07:34:04;;;;;;;2.33;1.38;;;12.30;94.70;;;;;;5114427;28;20023;-72
2021/10/05 07:36:29;;;;;;;1.75;1.50;;;12.40;94.70;;;;;;5114421;28;20031;-71
2021/10/05 07:38:55;;;;;;;2.95;1.90;;;12.60;94.70;;;;;;5114288;28;20388;-71
2021/10/05 07:41:21;;;;;;;3.33;2.45;;;12.60;94.60;;;;;;5113818;28;20033;-71
2021/10/05 07:43:46;;;;;;;3.55;1.95;;;12.80;94.60;;;;;;5114196;28;20028;-72
2021/10/05 07:46:14;;;;;;;2.72;1.88;;;12.90;94.50;;;;;;5114336;28;20033;-70
2021/10/05 07:48:39;;;;;;;2.55;1.70;;;12.90;94.50;;;;;;5114156;28;20036;-71
2021/10/05 07:51:05;;;;;;;2.97;1.70;;;12.80;94.50;;;;;;5095914;28;20114;-71
2021/10/05 07:53:31;;;;;;;2.92;1.92;;;12.80;94.50;;;;;;5114183;28;20024;-72
2021/10/05 07:55:56;;;;;;;1.92;1.70;;;12.80;94.50;;;;;;5095280;28;20107;-71
2021/10/05 07:58:22;;;;;;;3.78;2.63;;;12.70;94.60;;;;;;5114010;28;20035;-70
2021/10/05 08:00:47;;;;;;;2.65;1.58;;;12.70;94.60;;;;;;5113899;28;20088;-71
2021/10/05 08:03:13;;;;;;;1.98;1.60;;;12.70;94.70;;;;;;5114475;28;20027;-71
2021/10/05 08:05:38;;;;;;;3.22;1.60;;;12.70;94.70;;;;;;5114109;28;20062;-71
2021/10/05 08:08:05;;;;;;;3.55;2.20;;;12.70;94.70;;;;;;5113838;28;20550;-71
2021/10/05 08:10:32;;;;;;;2.75;1.75;;;12.80;94.70;;;;;;5110819;28;20485;-73
2021/10/05 08:12:58;;;;;;;2.25;1.25;;;12.80;94.70;;;;;;5113189;28;20043;-71
2021/10/05 08:15:24;;;;;;;1.88;1.40;;;12.90;94.70;;;;;;5113896;28;20046;-70
2021/10/05 08:17:49;;;;;;;2.45;1.27;;;12.90;94.70;;;;;;5113866;28;20016;-71
2021/10/05 08:20:15;;;;;;;1.38;1.08;;;13.00;94.70;;;;;;5113801;28;20361;-71
2021/10/05 08:22:40;;;;;;;2.38;1.75;;;13.10;94.70;;;;;;5113555;28;20055;-72
2021/10/05 08:25:07;;;;;;;1.75;1.50;;;13.20;94.70;;;;;;5129033;27;20023;-73
2021/10/05 08:27:32;;;;;;;2.97;2.08;;;13.20;94.70;;;;;;5095238;28;20039;-72
2021/10/05 08:29:57;;;;;;;3.50;1.75;;;13.30;94.70;;;;;;5113713;28;20027;-72
2021/10/05 08:32:23;;;;;;;2.20;1.55;;;13.30;94.70;;;;;;5095253;28;20430;-70
2021/10/05 08:34:48;;;;;;;1.70;1.60;;;13.40;94.70;;;;;;5113532;28;20024;-71
2021/10/05 08:37:14;;;;;;;2.65;1.90;;;13.40;94.70;;;;;;5113649;28;20020;-71
2021/10/05 08:39:40;;;;;;;2.42;1.77;;;13.50;94.70;;;;;;5113059;28;20031;-71
2021/10/05 08:42:06;;;;;;;2.72;1.90;;;13.60;94.70;;;;;;5095275;28;20472;-71
2021/10/05 08:44:32;;;;;;;2.55;1.33;;;13.60;94.70;;;;;;5113496;28;20081;-70
2021/10/05 08:46:58;;;;;;;2.65;1.55;;;13.80;94.80;;;;;;5113255;28;20329;-71
2021/10/05 08:49:24;;;;;;;3.30;1.65;;;13.80;94.80;;;;;;5113532;28;20034;-71
2021/10/05 08:51:50;;;;;;;2.05;1.25;;;13.90;94.70;;;;;;5113550;28;20016;-71
2021/10/05 08:54:16;;;;;;;1.50;1.10;;;14.00;94.70;;;;;;5112997;28;20445;-70
2021/10/05 08:56:44;;;;;;;1.67;1.45;;;14.00;94.70;;;;;;5113425;28;20098;-71
2021/10/05 08:59:11;;;;;;;1.85;1.38;;;14.00;94.70;;;;;;5113396;28;20028;-70
2021/10/05 09:01:36;;;;;;;2.13;1.23;;;14.10;94.80;;;;;;5113221;28;20035;-71
2021/10/05 09:04:03;;;;;;;2.45;1.55;;;14.20;94.80;;;;;;5095062;28;20020;-71
2021/10/05 09:06:29;;;;;;;1.90;1.10;;;14.30;94.80;;;;;;5113273;28;20030;-70
2021/10/05 09:08:55;;;;;;;2.33;1.92;;;14.40;94.70;;;;;;5112718;28;20114;-70
2021/10/05 09:11:26;;;;;;;3.15;1.92;;;14.50;94.70;;;;;;5113093;28;20040;-71
2021/10/05 09:13:54;;;;;;;1.40;1.17;;;14.50;94.70;;;;;;5113348;28;20472;-71
2021/10/05 09:16:24;;;;;;;1.83;1.70;;;14.60;94.70;;;;;;5113322;28;20069;-71
2021/10/05 09:18:50;;;;;;;;;;;14.60;94.70;;;;;;5113710;28;20024;-70
2021/10/05 09:21:16;;;;;;;0.90;0.68;;;14.70;94.90;;;;;;5113191;28;19903;-71
2021/10/05 09:23:58;;;;;;;1.35;1.23;;;14.80;94.80;;;;;;5114300;28;20053;-71
2021/10/05 09:26:55;;;;;;;1.67;1.25;;;14.90;94.70;;;;;;5117071;28;20492;-70
2021/10/05 09:29:27;;;;;;;1.65;1.10;;;15.00;94.70;;;;;;5116899;28;20036;-70
2021/10/05 09:32:00;;;;;;;1.83;1.13;;;15.10;94.70;;;;;;5116924;28;20066;-70
2021/10/05 09:34:50;;;;;;;1.33;1.23;;;15.20;94.70;;;;;;5116746;28;20028;-70
2021/10/05 09:37:25;;;;;;;2.20;1.77;;;15.30;94.70;;;;;;5098151;28;20369;-71
2021/10/05 09:39:54;;;;;;;1.20;1.10;;;15.40;94.80;;;;;;5116625;28;20015;-71
2021/10/05 09:42:20;;;;;;;1.13;1.05;;;15.40;94.70;;;;;;5116680;28;20521;-70
2021/10/05 09:45:05;;;;;;;2.33;1.30;;;15.50;94.70;;;;;;5116744;28;20024;-70
2021/10/05 09:47:33;;;;;;;1.33;1.00;;;15.60;94.70;;;;;;5098049;28;20118;-71
2021/10/05 09:49:59;;;;;;;1.05;0.98;;;15.70;94.70;;;;;;5116559;28;20028;-71
2021/10/05 09:52:41;;;;;;;1.08;0.98;;;15.80;94.70;;;;;;5115909;28;20491;-71
2021/10/05 09:55:07;;;;;;;0.52;0.52;;;15.90;94.60;;;;;;5116456;28;20027;-71
2021/10/05 09:57:33;;;;;;;1.13;1.00;;;16.00;94.70;;;;;;5116545;28;20034;-71
2021/10/05 09:59:58;;;;;;;1.02;0.95;;;16.00;94.70;;;;;;5116230;28;20024;-71
2021/10/05 10:02:24;;;;;;;1.20;1.10;;;16.10;94.70;;;;;;5116618;28;20452;-70
2021/10/05 10:04:51;;;;;;;1.27;1.00;;;16.20;94.60;;;;;;5116229;28;20099;-70
2021/10/05 10:07:17;;;;;;;0.70;0.70;;;16.20;94.60;;;;;;5115591;28;20047;-70
2021/10/05 10:09:42;;;;;;;1.73;1.20;;;16.30;94.60;;;;;;5116171;28;20030;-70
2021/10/05 10:12:08;;;;;;;1.05;0.90;;;16.40;94.60;;;;;;5116122;28;20043;-69
2021/10/05 10:14:34;;;;;;;0.70;0.70;;;16.50;94.60;;;;;;5116110;28;20024;-70
2021/10/05 10:16:59;;;;;;;0.80;0.80;;;16.60;94.60;;;;;;5115844;28;20079;-70
2021/10/05 10:19:30;;;;;;;1.00;0.80;;;16.70;94.60;;;;;;5115907;28;20039;-71
2021/10/05 10:22:08;;;;;;;1.73;1.10;;;16.80;94.50;;;;;;5115468;28;20020;-71
2021/10/05 10:24:45;;;;;;;0.70;0.70;;;16.80;94.40;;;;;;5116192;28;20024;-70
2021/10/05 10:27:10;;;;;;;0.95;0.85;;;16.90;94.50;;;;;;5115823;28;20023;-70
2021/10/05 10:29:36;;;;;;;1.20;1.10;;;16.90;94.60;;;;;;5115850;28;20419;-70
2021/10/05 10:32:20;;;;;;;1.02;0.75;;;16.90;94.50;;;;;;5115704;28;20024;-70
2021/10/05 10:34:47;;;;;;;1.15;0.85;;;17.00;94.50;;;;;;5114886;28;20015;-70
2021/10/05 10:37:21;;;;;;;0.93;0.80;;;17.00;94.60;;;;;;5115222;28;20035;-71
2021/10/05 10:39:48;;;;;;;0.80;0.80;;;17.10;94.50;;;;;;5115502;28;20123;-70
2021/10/05 10:42:26;;;;;;;0.90;0.80;;;17.20;94.60;;;;;;5115581;28;20043;-70
2021/10/05 10:44:52;;;;;;;0.60;0.60;;;17.40;94.50;;;;;;5115535;28;20020;-70
2021/10/05 10:47:21;;;;;;;0.70;0.70;;;17.60;94.50;;;;;;5115403;28;20031;-73
2021/10/05 10:49:58;;;;;;;0.60;0.60;;;17.80;94.30;;;;;;5114827;28;20116;-72
2021/10/05 10:52:29;;;;;;;1.00;0.98;;;17.90;94.30;;;;;;5115369;28;20024;-72
2021/10/05 10:54:56;;;;;;;1.15;0.85;;;17.90;94.10;;;;;;5115128;28;20028;-72
2021/10/05 10:57:37;;;;;;;0.70;0.70;;;17.90;94.20;;;;;;5115219;28;20035;-73
2021/10/05 11:00:19;;;;;;;0.95;0.88;;;18.10;94.20;;;;;;5115339;28;20145;-71
2021/10/05 11:02:53;;;;;;;0.93;0.73;;;18.20;94.10;;;;;;5115226;28;20028;-71
2021/10/05 11:05:22;;;;;;;0.73;0.73;;;18.30;94.10;;;;;;5114456;28;20026;-70
2021/10/05 11:07:53;;;;;;;0.45;0.45;;;18.30;94.00;;;;;;5114885;28;20028;-71
2021/10/05 11:10:33;;;;;;;1.13;1.02;;;18.30;94.00;;;;;;5115075;28;20069;-71
2021/10/05 11:13:03;;;;;;;0.88;0.88;;;18.20;94.00;;;;;;5114923;28;20035;-71
2021/10/05 11:15:45;;;;;;;0.68;0.68;;;18.00;94.10;;;;;;5114868;28;20053;-72
2021/10/05 11:18:11;;;;;;;1.10;0.57;;;17.90;94.00;;;;;;5114760;28;20023;-71
2021/10/05 11:20:43;;;;;;;1.15;0.82;;;17.80;94.20;;;;;;5114226;28;20028;-70
2021/10/05 11:23:08;;;;;;;0.80;0.80;;;17.70;94.20;;;;;;5096480;28;20055;-71
2021/10/05 11:25:34;;;;;;;0.60;0.60;;;17.60;94.30;;;;;;5114760;28;20058;-71
2021/10/05 11:28:07;;;;;;;1.33;0.70;;;17.70;94.30;;;;;;5114411;28;20456;-71
2021/10/05 11:31:00;;;;;;;0.60;0.60;;;17.90;94.20;;;;;;5114619;28;20059;-72
2021/10/05 11:33:34;;;;;;;0.63;0.63;;;18.00;94.10;;;;;;5114058;28;20094;-71
2021/10/05 11:36:11;;;;;;;0.75;0.70;;;17.90;94.00;;;;;;5114649;28;20031;-71
2021/10/05 11:38:49;;;;;;;0.77;0.70;;;17.80;94.00;;;;;;5114320;28;20076;-71
2021/10/05 11:41:15;;;;;;;0.65;0.65;;;17.80;94.00;;;;;;5114351;28;20177;-71
2021/10/05 11:43:46;;;;;;;0.77;0.77;;;17.70;94.10;;;;;;5114421;28;20560;-72
2021/10/05 11:46:15;;;;;;;0.77;0.77;;;17.70;94.10;;;;;;5114328;28;20016;-72
2021/10/05 11:48:53;;;;;;;0.77;0.77;;;17.70;94.10;;;;;;5113753;28;20533;-72
2021/10/05 11:51:21;;;;;;;0.73;0.60;;;17.60;94.00;;;;;;5114232;28;20023;-72
2021/10/05 11:53:48;;;;;;;0.95;0.77;;;17.60;94.10;;;;;;5114246;28;20069;-72
2021/10/05 11:56:19;;;;;;;0.95;0.77;;;17.60;94.00;;;;;;5114057;28;20529;-72
2021/10/05 11:58:56;;;;;;;0.77;0.77;;;17.60;94.10;;;;;;5095846;28;20038;-72
2021/10/05 12:01:28;;;;;;;0.57;0.57;;;17.50;94.00;;;;;;5114041;28;20059;-72
2021/10/05 12:04:07;;;;;;;0.60;0.60;;;17.50;94.10;;;;;;5113563;28;20019;-72
2021/10/05 12:06:33;;;;;;;;;;;17.50;94.20;;;;;;5114401;28;20035;-71
2021/10/05 12:09:01;;;;;;;0.65;0.57;;;17.60;94.40;;;;;;5113966;28;20365;-72
2021/10/05 12:12:06;;;;;;;0.65;0.65;;;17.70;94.20;;;;;;5095595;28;20477;-71
2021/10/05 12:14:40;;;;;;;0.60;0.60;;;17.70;94.00;;;;;;5072672;28;20038;-71
2021/10/05 12:17:10;;;;;;;0.30;0.30;;;17.60;94.00;;;;;;5113441;28;20550;-72
2021/10/05 12:19:39;;;;;;;0.50;0.50;;;17.50;94.00;;;;;;5113989;28;20038;-71
2021/10/05 12:22:07;;;;;;;1.20;0.68;;;17.50;94.00;;;;;;5095557;28;20106;-72
2021/10/05 12:24:47;;;;;;;0.75;0.70;;;17.40;94.10;;;;;;5113731;28;20130;-72
2021/10/05 12:27:35;;;;;;;0.40;0.40;;;17.40;94.00;;;;;;5113626;28;20024;-71
2021/10/05 12:30:12;;;;;;;3.50;1.05;;;17.30;94.10;;;;;;5113148;28;20040;-72
2021/10/05 12:32:44;;;;;;;0.88;0.70;;;17.30;94.10;;;;;;5113216;28;20016;-71
2021/10/05 12:35:29;;;;;;;2.45;0.73;;;17.30;94.10;;;;;;5095291;28;20395;-71
2021/10/05 12:38:02;;;;;;;0.50;0.50;;;17.30;94.00;;;;;;5113601;28;20388;-71
2021/10/05 12:40:46;;;;;;;0.63;0.63;;;17.30;94.10;;;;;;5113748;28;20062;-72
2021/10/05 12:43:13;;;;;;;0.57;0.50;;;17.40;94.00;;;;;;5113642;28;20396;-71
2021/10/05 12:45:39;;;;;;;0.65;0.65;;;17.30;94.10;;;;;;5113531;28;20019;-71
2021/10/05 12:48:07;;;;;;;0.60;0.60;;;17.30;94.10;;;;;;5112975;28;20102;-72
2021/10/05 12:50:38;;;;;;;0.50;0.47;;;17.30;94.10;;;;;;5113423;28;20059;-71